SAS38H ESSA-LGAV
Flight info
| Callsign | SAS38H |
|---|---|
| Flight time | 3h 24m |
| Altitude | 37000 |
| Route | BABAP T316 NEPVA DCT ROGMI/N0458F380 DCT PENOR/N0456F390 DCT RATOR DCT BAXIS DCT BABKO DCT PARAK DCT IBISI DCT KRATO DCT MAKED DCT SKP UM749 ROPOX |
| Aircraft | A20N/M-VGDW/C |
Departure
| Time | 2026-05-07 08:46 |
|---|---|
| Airport | Stockholm-Arlanda Airport (ESSA) |
Arrival
| Time | 2026-05-07 12:10 |
|---|---|
| Airport | Athens Eleftherios Venizelos International Airport (LGAV) |
| Time | Latitude | Longitude | Altitude | Speed | Heading |
|---|---|---|---|---|---|
| 2026-05-07 08:16 | 59.65464 | 17.93765 | 115 ft | 0 kts | 255° |
| 2026-05-07 08:35 | 59.65469 | 17.93803 | 112 ft | 4 kts | 256° |
| 2026-05-07 08:35 | 59.65476 | 17.93855 | 112 ft | 4 kts | 254° |
| 2026-05-07 08:36 | 59.65478 | 17.93889 | 113 ft | 2 kts | 287° |
| 2026-05-07 08:36 | 59.65472 | 17.93908 | 112 ft | 2 kts | 321° |
| 2026-05-07 08:36 | 59.65463 | 17.93919 | 114 ft | 2 kts | 337° |
| 2026-05-07 08:36 | 59.65456 | 17.93924 | 113 ft | 1 kts | 343° |
| 2026-05-07 08:39 | 59.65511 | 17.93896 | 116 ft | 12 kts | 347° |
| 2026-05-07 08:39 | 59.65588 | 17.93850 | 115 ft | 5 kts | 332° |
| 2026-05-07 08:40 | 59.65590 | 17.93848 | 117 ft | 0 kts | 331° |
| 2026-05-07 08:40 | 59.65591 | 17.93845 | 117 ft | 1 kts | 321° |
| 2026-05-07 08:40 | 59.65596 | 17.93802 | 117 ft | 6 kts | 264° |
| 2026-05-07 08:40 | 59.65581 | 17.93689 | 114 ft | 12 kts | 256° |
| 2026-05-07 08:41 | 59.65556 | 17.93494 | 113 ft | 17 kts | 256° |
| 2026-05-07 08:41 | 59.65523 | 17.93238 | 115 ft | 20 kts | 255° |
| 2026-05-07 08:41 | 59.65488 | 17.92978 | 115 ft | 19 kts | 252° |
| 2026-05-07 08:41 | 59.65440 | 17.92736 | 114 ft | 19 kts | 241° |
| 2026-05-07 08:42 | 59.65496 | 17.92561 | 109 ft | 19 kts | 333° |
| 2026-05-07 08:42 | 59.65624 | 17.92481 | 106 ft | 20 kts | 346° |
| 2026-05-07 08:42 | 59.65752 | 17.92422 | 107 ft | 18 kts | 356° |
| 2026-05-07 08:42 | 59.65875 | 17.92461 | 110 ft | 17 kts | 10° |
| 2026-05-07 08:43 | 59.65987 | 17.92502 | 112 ft | 15 kts | 11° |
| 2026-05-07 08:43 | 59.66098 | 17.92542 | 114 ft | 18 kts | 10° |
| 2026-05-07 08:43 | 59.66232 | 17.92591 | 118 ft | 21 kts | 10° |
| 2026-05-07 08:43 | 59.66379 | 17.92644 | 121 ft | 21 kts | 10° |
| 2026-05-07 08:44 | 59.66513 | 17.92623 | 123 ft | 19 kts | 338° |
| 2026-05-07 08:44 | 59.66616 | 17.92511 | 128 ft | 15 kts | 294° |
| 2026-05-07 08:44 | 59.66600 | 17.92355 | 125 ft | 11 kts | 186° |
| 2026-05-07 08:44 | 59.66581 | 17.92350 | 126 ft | 0 kts | 191° |
| 2026-05-07 08:45 | 59.66577 | 17.92348 | 126 ft | 1 kts | 191° |
| 2026-05-07 08:45 | 59.66538 | 17.92335 | 126 ft | 23 kts | 189° |
| 2026-05-07 08:45 | 59.66151 | 17.92199 | 119 ft | 89 kts | 189° |
| 2026-05-07 08:45 | 59.65323 | 17.91901 | 109 ft | 151 kts | 190° |
| 2026-05-07 08:46 | 59.64239 | 17.91518 | 589 ft | 154 kts | 189° |
| 2026-05-07 08:46 | 59.63220 | 17.91198 | 1396 ft | 150 kts | 188° |
| 2026-05-07 08:46 | 59.62162 | 17.90902 | 2038 ft | 161 kts | 187° |
| 2026-05-07 08:46 | 59.60956 | 17.90679 | 2473 ft | 187 kts | 184° |
| 2026-05-07 08:47 | 59.59584 | 17.90486 | 2944 ft | 204 kts | 184° |
| 2026-05-07 08:47 | 59.58127 | 17.90330 | 3567 ft | 213 kts | 180° |
| 2026-05-07 08:47 | 59.56667 | 17.90903 | 4303 ft | 217 kts | 155° |
| 2026-05-07 08:47 | 59.55450 | 17.92695 | 5038 ft | 221 kts | 136° |
| 2026-05-07 08:48 | 59.54452 | 17.95033 | 5763 ft | 226 kts | 121° |
| 2026-05-07 08:48 | 59.53992 | 17.97988 | 6484 ft | 230 kts | 91° |
| 2026-05-07 08:48 | 59.54363 | 18.01019 | 7156 ft | 231 kts | 58° |
| 2026-05-07 08:48 | 59.55405 | 18.03448 | 7834 ft | 236 kts | 42° |
| 2026-05-07 08:49 | 59.56673 | 18.05692 | 8238 ft | 256 kts | 39° |
| 2026-05-07 08:49 | 59.58086 | 18.08092 | 8610 ft | 277 kts | 39° |
| 2026-05-07 08:49 | 59.59564 | 18.10640 | 9385 ft | 285 kts | 39° |
| 2026-05-07 08:49 | 59.60989 | 18.13429 | 10192 ft | 294 kts | 49° |
| 2026-05-07 08:50 | 59.62054 | 18.17038 | 10627 ft | 317 kts | 66° |
| 2026-05-07 08:50 | 59.62852 | 18.21266 | 10984 ft | 340 kts | 72° |
| 2026-05-07 08:50 | 59.63306 | 18.25998 | 11325 ft | 362 kts | 88° |
| 2026-05-07 08:50 | 59.62931 | 18.30943 | 11696 ft | 378 kts | 112° |
| 2026-05-07 08:51 | 59.61531 | 18.35427 | 12368 ft | 382 kts | 134° |
| 2026-05-07 08:51 | 59.59655 | 18.39105 | 13114 ft | 387 kts | 140° |
| 2026-05-07 08:51 | 59.57652 | 18.42704 | 13886 ft | 392 kts | 141° |
| 2026-05-07 08:51 | 59.55621 | 18.46341 | 14588 ft | 397 kts | 141° |
| 2026-05-07 08:52 | 59.53577 | 18.50039 | 15305 ft | 401 kts | 141° |
| 2026-05-07 08:52 | 59.51518 | 18.53789 | 16011 ft | 405 kts | 141° |
| 2026-05-07 08:52 | 59.49440 | 18.57585 | 16695 ft | 409 kts | 141° |
| 2026-05-07 08:52 | 59.47348 | 18.61408 | 17355 ft | 413 kts | 141° |
| 2026-05-07 08:53 | 59.45164 | 18.65086 | 18008 ft | 414 kts | 147° |
| 2026-05-07 08:53 | 59.42701 | 18.67962 | 18617 ft | 411 kts | 160° |
| 2026-05-07 08:53 | 59.39976 | 18.69467 | 19172 ft | 405 kts | 178° |
| 2026-05-07 08:53 | 59.37182 | 18.69434 | 19751 ft | 401 kts | 189° |
| 2026-05-07 08:54 | 59.34424 | 18.68652 | 20356 ft | 400 kts | 195° |
| 2026-05-07 08:54 | 59.31708 | 18.67485 | 20946 ft | 401 kts | 198° |
| 2026-05-07 08:54 | 59.29027 | 18.66156 | 21515 ft | 403 kts | 199° |
| 2026-05-07 08:54 | 59.26310 | 18.64766 | 22090 ft | 405 kts | 199° |
| 2026-05-07 08:55 | 59.23567 | 18.63388 | 22634 ft | 408 kts | 199° |
| 2026-05-07 08:55 | 59.20800 | 18.62045 | 23161 ft | 411 kts | 198° |
| 2026-05-07 08:55 | 59.18013 | 18.60736 | 23678 ft | 414 kts | 198° |
| 2026-05-07 08:55 | 59.15202 | 18.59449 | 24085 ft | 416 kts | 198° |
| 2026-05-07 08:56 | 59.12374 | 18.58174 | 24500 ft | 418 kts | 198° |
| 2026-05-07 08:56 | 59.09530 | 18.56902 | 24925 ft | 420 kts | 198° |
| 2026-05-07 08:56 | 59.06677 | 18.55630 | 25330 ft | 422 kts | 198° |
| 2026-05-07 08:56 | 59.03806 | 18.54351 | 25738 ft | 424 kts | 198° |
| 2026-05-07 08:57 | 59.00931 | 18.53070 | 26128 ft | 425 kts | 198° |
| 2026-05-07 08:57 | 58.98041 | 18.51782 | 26516 ft | 427 kts | 198° |
| 2026-05-07 08:57 | 58.95135 | 18.50488 | 26891 ft | 429 kts | 198° |
| 2026-05-07 08:57 | 58.92220 | 18.49193 | 27254 ft | 431 kts | 198° |
| 2026-05-07 08:58 | 58.89297 | 18.47895 | 27713 ft | 430 kts | 198° |
| 2026-05-07 08:58 | 58.86398 | 18.46615 | 28253 ft | 427 kts | 198° |
| 2026-05-07 08:58 | 58.83511 | 18.45342 | 28792 ft | 424 kts | 198° |
| 2026-05-07 08:58 | 58.80642 | 18.44078 | 29296 ft | 422 kts | 198° |
| 2026-05-07 08:59 | 58.77787 | 18.42821 | 29781 ft | 420 kts | 198° |
| 2026-05-07 08:59 | 58.74944 | 18.41569 | 30250 ft | 418 kts | 198° |
| 2026-05-07 08:59 | 58.72110 | 18.40324 | 30607 ft | 417 kts | 198° |
| 2026-05-07 08:59 | 58.69276 | 18.39079 | 30922 ft | 417 kts | 198° |
| 2026-05-07 09:00 | 58.66450 | 18.37840 | 31241 ft | 417 kts | 198° |
| 2026-05-07 09:00 | 58.63627 | 18.36604 | 31570 ft | 416 kts | 198° |
| 2026-05-07 09:00 | 58.60805 | 18.35371 | 31872 ft | 416 kts | 198° |
| 2026-05-07 09:00 | 58.57986 | 18.34143 | 32198 ft | 415 kts | 198° |
| 2026-05-07 09:01 | 58.55171 | 18.32919 | 32509 ft | 414 kts | 198° |
| 2026-05-07 09:01 | 58.52364 | 18.31699 | 32808 ft | 414 kts | 198° |
| 2026-05-07 09:01 | 58.49553 | 18.30480 | 33102 ft | 414 kts | 198° |
| 2026-05-07 09:01 | 58.46753 | 18.29268 | 33374 ft | 414 kts | 198° |
| 2026-05-07 09:02 | 58.43942 | 18.28053 | 33677 ft | 413 kts | 198° |
| 2026-05-07 09:02 | 58.41170 | 18.26857 | 33949 ft | 413 kts | 198° |
| 2026-05-07 09:02 | 58.38376 | 18.25653 | 34193 ft | 412 kts | 198° |
| 2026-05-07 09:02 | 58.35572 | 18.24447 | 34379 ft | 413 kts | 198° |
| 2026-05-07 09:03 | 58.32768 | 18.23243 | 34556 ft | 413 kts | 198° |
| 2026-05-07 09:03 | 58.29956 | 18.22036 | 34727 ft | 414 kts | 198° |
| 2026-05-07 09:03 | 58.27139 | 18.20830 | 34893 ft | 415 kts | 198° |
| 2026-05-07 09:03 | 58.24319 | 18.19624 | 35066 ft | 416 kts | 198° |
| 2026-05-07 09:04 | 58.21496 | 18.18420 | 35240 ft | 416 kts | 198° |
| 2026-05-07 09:04 | 58.18671 | 18.17217 | 35412 ft | 417 kts | 198° |
| 2026-05-07 09:04 | 58.15837 | 18.16012 | 35574 ft | 417 kts | 197° |
| 2026-05-07 09:04 | 58.13001 | 18.14808 | 35725 ft | 418 kts | 197° |
| 2026-05-07 09:05 | 58.10161 | 18.13605 | 35889 ft | 418 kts | 197° |
| 2026-05-07 09:05 | 58.07319 | 18.12402 | 36046 ft | 419 kts | 197° |
| 2026-05-07 09:05 | 58.04477 | 18.11202 | 36212 ft | 419 kts | 197° |
| 2026-05-07 09:05 | 58.01623 | 18.09998 | 36349 ft | 420 kts | 197° |
| 2026-05-07 09:06 | 57.98775 | 18.08799 | 36486 ft | 420 kts | 197° |
| 2026-05-07 09:06 | 57.95917 | 18.07597 | 36624 ft | 421 kts | 197° |
| 2026-05-07 09:06 | 57.93055 | 18.06396 | 36765 ft | 422 kts | 197° |
| 2026-05-07 09:06 | 57.90190 | 18.05196 | 36908 ft | 422 kts | 197° |
| 2026-05-07 09:07 | 57.87327 | 18.03999 | 37044 ft | 422 kts | 197° |
| 2026-05-07 09:07 | 57.84453 | 18.02798 | 37175 ft | 423 kts | 197° |
| 2026-05-07 09:07 | 57.81584 | 18.01602 | 37319 ft | 423 kts | 197° |
| 2026-05-07 09:07 | 57.78704 | 18.00403 | 37438 ft | 424 kts | 197° |
| 2026-05-07 09:08 | 57.75858 | 17.99221 | 37567 ft | 424 kts | 197° |
| 2026-05-07 09:08 | 57.72941 | 17.98011 | 37702 ft | 424 kts | 197° |
| 2026-05-07 09:08 | 57.70097 | 17.96832 | 37820 ft | 424 kts | 197° |
| 2026-05-07 09:08 | 57.67212 | 17.95639 | 37939 ft | 425 kts | 197° |
| 2026-05-07 09:09 | 57.64325 | 17.94447 | 38041 ft | 426 kts | 196° |
| 2026-05-07 09:09 | 57.61426 | 17.93251 | 38053 ft | 428 kts | 196° |
| 2026-05-07 09:09 | 57.55615 | 17.90862 | 38056 ft | 427 kts | 196° |
| 2026-05-07 09:10 | 57.49812 | 17.88485 | 38054 ft | 427 kts | 196° |
| 2026-05-07 09:10 | 57.44009 | 17.86115 | 38059 ft | 427 kts | 196° |
| 2026-05-07 09:11 | 57.38208 | 17.83753 | 38058 ft | 427 kts | 196° |
| 2026-05-07 09:11 | 57.32411 | 17.81399 | 38057 ft | 427 kts | 196° |
| 2026-05-07 09:12 | 57.26613 | 17.79054 | 38053 ft | 427 kts | 196° |
| 2026-05-07 09:12 | 57.20814 | 17.76715 | 38054 ft | 426 kts | 196° |
| 2026-05-07 09:13 | 57.15013 | 17.74383 | 38054 ft | 426 kts | 196° |
| 2026-05-07 09:13 | 57.09218 | 17.72061 | 38055 ft | 426 kts | 196° |
| 2026-05-07 09:14 | 57.03412 | 17.69742 | 38051 ft | 426 kts | 196° |
| 2026-05-07 09:14 | 56.97616 | 17.67434 | 38055 ft | 426 kts | 196° |
| 2026-05-07 09:15 | 56.91819 | 17.65134 | 38050 ft | 426 kts | 195° |
| 2026-05-07 09:15 | 56.86018 | 17.62839 | 38053 ft | 426 kts | 195° |
| 2026-05-07 09:16 | 56.80221 | 17.60553 | 38058 ft | 426 kts | 195° |
| 2026-05-07 09:16 | 56.74420 | 17.58272 | 38055 ft | 426 kts | 195° |
| 2026-05-07 09:17 | 56.68663 | 17.56016 | 38051 ft | 426 kts | 195° |
| 2026-05-07 09:17 | 56.62866 | 17.53751 | 38050 ft | 426 kts | 195° |
| 2026-05-07 09:18 | 56.57069 | 17.51494 | 38050 ft | 426 kts | 195° |
| 2026-05-07 09:18 | 56.51284 | 17.49249 | 38051 ft | 426 kts | 195° |
| 2026-05-07 09:19 | 56.45491 | 17.47007 | 38049 ft | 425 kts | 195° |
| 2026-05-07 09:19 | 56.39702 | 17.44773 | 38047 ft | 425 kts | 195° |
| 2026-05-07 09:20 | 56.33913 | 17.42547 | 38046 ft | 425 kts | 195° |
| 2026-05-07 09:20 | 56.28124 | 17.40327 | 38048 ft | 425 kts | 195° |
| 2026-05-07 09:21 | 56.22341 | 17.38117 | 38047 ft | 424 kts | 195° |
| 2026-05-07 09:21 | 56.16565 | 17.35916 | 38044 ft | 424 kts | 195° |
| 2026-05-07 09:22 | 56.10795 | 17.33725 | 38044 ft | 424 kts | 195° |
| 2026-05-07 09:22 | 56.05016 | 17.31536 | 38047 ft | 424 kts | 195° |
| 2026-05-07 09:23 | 55.99245 | 17.29357 | 38043 ft | 424 kts | 195° |
| 2026-05-07 09:23 | 55.94449 | 17.27551 | 38044 ft | 424 kts | 195° |
| 2026-05-07 09:24 | 55.87745 | 17.25034 | 38047 ft | 424 kts | 195° |
| 2026-05-07 09:24 | 55.81976 | 17.22876 | 38038 ft | 424 kts | 195° |
| 2026-05-07 09:25 | 55.77143 | 17.21073 | 38038 ft | 423 kts | 195° |
| 2026-05-07 09:25 | 55.71374 | 17.18927 | 38042 ft | 423 kts | 195° |
| 2026-05-07 09:26 | 55.65557 | 17.17169 | 38038 ft | 426 kts | 186° |
| 2026-05-07 09:26 | 55.59648 | 17.18025 | 38032 ft | 433 kts | 173° |
| 2026-05-07 09:27 | 55.53757 | 17.20452 | 38288 ft | 435 kts | 169° |
| 2026-05-07 09:27 | 55.47905 | 17.23156 | 38576 ft | 434 kts | 169° |
| 2026-05-07 09:28 | 55.44979 | 17.24504 | 38698 ft | 434 kts | 169° |
| 2026-05-07 09:28 | 55.39124 | 17.27149 | 38879 ft | 434 kts | 169° |
| 2026-05-07 09:29 | 55.33261 | 17.29747 | 39021 ft | 435 kts | 170° |
| 2026-05-07 09:29 | 55.27369 | 17.32336 | 39025 ft | 436 kts | 169° |
| 2026-05-07 09:30 | 55.21490 | 17.34915 | 39026 ft | 435 kts | 169° |
| 2026-05-07 09:30 | 55.15615 | 17.37485 | 39024 ft | 434 kts | 169° |
| 2026-05-07 09:31 | 55.09750 | 17.40044 | 39022 ft | 434 kts | 169° |
| 2026-05-07 09:31 | 55.03926 | 17.42577 | 39023 ft | 434 kts | 169° |
| 2026-05-07 09:32 | 54.98059 | 17.45122 | 39023 ft | 434 kts | 169° |
| 2026-05-07 09:32 | 54.92196 | 17.47657 | 39020 ft | 434 kts | 170° |
| 2026-05-07 09:33 | 54.86336 | 17.50183 | 39015 ft | 434 kts | 170° |
| 2026-05-07 09:33 | 54.80480 | 17.52700 | 39018 ft | 433 kts | 170° |
| 2026-05-07 09:34 | 54.74628 | 17.55208 | 39021 ft | 433 kts | 170° |
| 2026-05-07 09:34 | 54.68767 | 17.57712 | 39015 ft | 433 kts | 170° |
| 2026-05-07 09:35 | 54.62923 | 17.60202 | 39012 ft | 432 kts | 170° |
| 2026-05-07 09:35 | 54.57089 | 17.62680 | 39000 ft | 432 kts | 170° |
| 2026-05-07 09:36 | 54.51299 | 17.65132 | 39003 ft | 431 kts | 170° |
| 2026-05-07 09:36 | 54.45475 | 17.67591 | 39002 ft | 430 kts | 170° |
| 2026-05-07 09:37 | 54.39664 | 17.70037 | 39000 ft | 430 kts | 170° |
| 2026-05-07 09:37 | 54.33858 | 17.72474 | 39000 ft | 429 kts | 170° |
| 2026-05-07 09:38 | 54.28053 | 17.74904 | 38995 ft | 428 kts | 170° |
| 2026-05-07 09:38 | 54.22268 | 17.77318 | 38992 ft | 428 kts | 170° |
| 2026-05-07 09:39 | 54.16524 | 17.79708 | 38990 ft | 427 kts | 170° |
| 2026-05-07 09:39 | 54.10754 | 17.82102 | 38987 ft | 427 kts | 170° |
| 2026-05-07 09:40 | 54.04985 | 17.84489 | 38983 ft | 426 kts | 170° |
| 2026-05-07 09:40 | 53.99228 | 17.86864 | 38984 ft | 426 kts | 170° |
| 2026-05-07 09:41 | 53.93489 | 17.89349 | 38978 ft | 426 kts | 168° |
| 2026-05-07 09:41 | 53.87776 | 17.92088 | 38979 ft | 427 kts | 168° |
| 2026-05-07 09:42 | 53.82070 | 17.94863 | 38980 ft | 426 kts | 168° |
| 2026-05-07 09:42 | 53.76360 | 17.97609 | 38976 ft | 426 kts | 168° |
| 2026-05-07 09:43 | 53.70643 | 18.00330 | 38971 ft | 427 kts | 168° |
| 2026-05-07 09:43 | 53.64917 | 18.03041 | 38972 ft | 427 kts | 168° |
| 2026-05-07 09:44 | 53.59224 | 18.05730 | 38977 ft | 428 kts | 168° |
| 2026-05-07 09:44 | 53.53486 | 18.08433 | 38969 ft | 429 kts | 168° |
| 2026-05-07 09:45 | 53.47732 | 18.11137 | 38970 ft | 429 kts | 168° |
| 2026-05-07 09:45 | 53.41974 | 18.13835 | 38965 ft | 430 kts | 168° |
| 2026-05-07 09:46 | 53.36202 | 18.16532 | 38965 ft | 431 kts | 168° |
| 2026-05-07 09:46 | 53.30417 | 18.19227 | 38963 ft | 432 kts | 168° |
| 2026-05-07 09:47 | 53.24623 | 18.21919 | 38962 ft | 433 kts | 168° |
| 2026-05-07 09:47 | 53.18818 | 18.24609 | 38963 ft | 433 kts | 168° |
| 2026-05-07 09:48 | 53.12995 | 18.27299 | 38961 ft | 434 kts | 168° |
| 2026-05-07 09:48 | 53.07203 | 18.29967 | 38962 ft | 435 kts | 168° |
| 2026-05-07 09:49 | 53.01333 | 18.32665 | 38958 ft | 435 kts | 168° |
| 2026-05-07 09:49 | 52.95532 | 18.35322 | 38956 ft | 435 kts | 168° |
| 2026-05-07 09:50 | 52.89681 | 18.37996 | 38956 ft | 436 kts | 168° |
| 2026-05-07 09:50 | 52.83832 | 18.40660 | 38950 ft | 436 kts | 168° |
| 2026-05-07 09:51 | 52.77970 | 18.43324 | 38950 ft | 437 kts | 168° |
| 2026-05-07 09:51 | 52.72090 | 18.45987 | 38952 ft | 437 kts | 168° |
| 2026-05-07 09:52 | 52.66212 | 18.48642 | 38952 ft | 438 kts | 168° |
| 2026-05-07 09:52 | 52.60369 | 18.51275 | 38948 ft | 439 kts | 168° |
| 2026-05-07 09:53 | 52.54469 | 18.53925 | 38948 ft | 439 kts | 168° |
| 2026-05-07 09:53 | 52.48567 | 18.56569 | 38950 ft | 440 kts | 168° |
| 2026-05-07 09:54 | 52.42658 | 18.59210 | 38947 ft | 440 kts | 168° |
| 2026-05-07 09:54 | 52.36750 | 18.61842 | 38946 ft | 440 kts | 168° |
| 2026-05-07 09:55 | 52.30828 | 18.64474 | 38954 ft | 440 kts | 168° |
| 2026-05-07 09:55 | 52.24954 | 18.67076 | 38952 ft | 440 kts | 168° |
| 2026-05-07 09:56 | 52.19048 | 18.69685 | 38949 ft | 440 kts | 168° |
| 2026-05-07 09:56 | 52.13134 | 18.72291 | 38944 ft | 440 kts | 168° |
| 2026-05-07 09:57 | 52.07226 | 18.74887 | 38944 ft | 440 kts | 168° |
| 2026-05-07 09:57 | 52.01319 | 18.77476 | 38945 ft | 439 kts | 168° |
| 2026-05-07 09:58 | 51.95417 | 18.80055 | 38946 ft | 439 kts | 168° |
| 2026-05-07 09:58 | 51.89519 | 18.82626 | 38939 ft | 438 kts | 168° |
| 2026-05-07 09:59 | 51.83633 | 18.85185 | 38937 ft | 438 kts | 169° |
| 2026-05-07 09:59 | 51.77759 | 18.87451 | 38937 ft | 435 kts | 173° |
| 2026-05-07 10:00 | 51.71817 | 18.89156 | 38939 ft | 433 kts | 174° |
| 2026-05-07 10:00 | 51.65880 | 18.90759 | 38933 ft | 432 kts | 174° |
| 2026-05-07 10:01 | 51.59956 | 18.92406 | 38937 ft | 431 kts | 174° |
| 2026-05-07 10:01 | 51.54051 | 18.94086 | 38936 ft | 430 kts | 174° |
| 2026-05-07 10:02 | 51.48157 | 18.95771 | 38930 ft | 430 kts | 174° |
| 2026-05-07 10:02 | 51.42308 | 18.97439 | 38929 ft | 428 kts | 174° |
| 2026-05-07 10:03 | 51.36445 | 18.99104 | 38926 ft | 428 kts | 174° |
| 2026-05-07 10:03 | 51.30588 | 19.00762 | 38925 ft | 427 kts | 174° |
| 2026-05-07 10:04 | 51.24737 | 19.02413 | 38925 ft | 427 kts | 174° |
| 2026-05-07 10:04 | 51.18884 | 19.04062 | 38919 ft | 427 kts | 174° |
| 2026-05-07 10:05 | 51.13036 | 19.05704 | 38914 ft | 426 kts | 174° |
| 2026-05-07 10:05 | 51.07192 | 19.07342 | 38913 ft | 426 kts | 174° |
| 2026-05-07 10:06 | 51.01356 | 19.08973 | 38920 ft | 425 kts | 174° |
| 2026-05-07 10:06 | 50.95526 | 19.10598 | 38913 ft | 425 kts | 174° |
| 2026-05-07 10:07 | 50.89738 | 19.12207 | 38908 ft | 424 kts | 174° |
| 2026-05-07 10:07 | 50.83922 | 19.13821 | 38914 ft | 424 kts | 174° |
| 2026-05-07 10:08 | 50.78119 | 19.15425 | 38905 ft | 423 kts | 174° |
| 2026-05-07 10:08 | 50.72316 | 19.17027 | 38915 ft | 423 kts | 174° |
| 2026-05-07 10:09 | 50.66516 | 19.18623 | 38923 ft | 423 kts | 174° |
| 2026-05-07 10:09 | 50.60717 | 19.20215 | 38930 ft | 423 kts | 174° |
| 2026-05-07 10:10 | 50.54918 | 19.21803 | 38936 ft | 423 kts | 174° |
| 2026-05-07 10:10 | 50.49114 | 19.23389 | 38936 ft | 423 kts | 174° |
| 2026-05-07 10:11 | 50.43353 | 19.24959 | 38934 ft | 423 kts | 174° |
| 2026-05-07 10:11 | 50.37559 | 19.26534 | 38930 ft | 423 kts | 174° |
| 2026-05-07 10:12 | 50.31758 | 19.28107 | 38924 ft | 423 kts | 174° |
| 2026-05-07 10:12 | 50.25962 | 19.29675 | 38918 ft | 422 kts | 174° |
| 2026-05-07 10:13 | 50.23069 | 19.30456 | 38916 ft | 422 kts | 174° |
| 2026-05-07 10:13 | 50.19445 | 19.31433 | 38912 ft | 422 kts | 174° |
| 2026-05-07 10:14 | 50.13657 | 19.32990 | 38908 ft | 423 kts | 174° |
| 2026-05-07 10:14 | 50.07852 | 19.34548 | 38915 ft | 423 kts | 174° |
| 2026-05-07 10:15 | 50.02058 | 19.36100 | 38910 ft | 423 kts | 174° |
| 2026-05-07 10:15 | 49.96250 | 19.37652 | 38912 ft | 423 kts | 174° |
| 2026-05-07 10:16 | 49.90448 | 19.39198 | 38912 ft | 423 kts | 174° |
| 2026-05-07 10:16 | 49.84646 | 19.40740 | 38915 ft | 423 kts | 174° |
| 2026-05-07 10:17 | 49.78831 | 19.42282 | 38916 ft | 424 kts | 174° |
| 2026-05-07 10:17 | 49.73017 | 19.43820 | 38921 ft | 424 kts | 174° |
| 2026-05-07 10:18 | 49.67200 | 19.45355 | 38923 ft | 424 kts | 174° |
| 2026-05-07 10:18 | 49.61384 | 19.46876 | 38926 ft | 424 kts | 175° |
| 2026-05-07 10:19 | 49.55581 | 19.48117 | 38932 ft | 423 kts | 177° |
| 2026-05-07 10:19 | 49.49742 | 19.49204 | 38929 ft | 423 kts | 177° |
| 2026-05-07 10:20 | 49.43887 | 19.50292 | 38934 ft | 423 kts | 177° |
| 2026-05-07 10:20 | 49.38047 | 19.51402 | 38938 ft | 424 kts | 177° |
| 2026-05-07 10:21 | 49.32182 | 19.52526 | 38947 ft | 424 kts | 177° |
| 2026-05-07 10:21 | 49.26328 | 19.53649 | 38944 ft | 424 kts | 177° |
| 2026-05-07 10:22 | 49.20473 | 19.54768 | 38948 ft | 424 kts | 177° |
| 2026-05-07 10:22 | 49.14625 | 19.55882 | 38947 ft | 423 kts | 177° |
| 2026-05-07 10:23 | 49.08781 | 19.56992 | 38952 ft | 424 kts | 177° |
| 2026-05-07 10:23 | 49.02962 | 19.58094 | 38954 ft | 424 kts | 177° |
| 2026-05-07 10:24 | 48.97067 | 19.59208 | 38953 ft | 424 kts | 177° |
| 2026-05-07 10:24 | 48.91218 | 19.60311 | 38963 ft | 424 kts | 177° |
| 2026-05-07 10:25 | 48.85386 | 19.61409 | 38961 ft | 425 kts | 177° |
| 2026-05-07 10:25 | 48.79508 | 19.62514 | 38960 ft | 425 kts | 177° |
| 2026-05-07 10:26 | 48.73644 | 19.63612 | 38961 ft | 425 kts | 177° |
| 2026-05-07 10:26 | 48.67752 | 19.64713 | 38967 ft | 425 kts | 177° |
| 2026-05-07 10:27 | 48.61879 | 19.65807 | 38967 ft | 425 kts | 177° |
| 2026-05-07 10:27 | 48.56039 | 19.66895 | 38966 ft | 425 kts | 177° |
| 2026-05-07 10:28 | 48.50165 | 19.67985 | 38962 ft | 425 kts | 177° |
| 2026-05-07 10:28 | 48.44294 | 19.69072 | 38967 ft | 425 kts | 177° |
| 2026-05-07 10:29 | 48.38413 | 19.70158 | 38963 ft | 426 kts | 177° |
| 2026-05-07 10:29 | 48.32529 | 19.71242 | 38963 ft | 426 kts | 177° |
| 2026-05-07 10:30 | 48.23695 | 19.72866 | 38960 ft | 426 kts | 178° |
| 2026-05-07 10:30 | 48.17801 | 19.73946 | 38969 ft | 426 kts | 178° |
| 2026-05-07 10:31 | 48.11912 | 19.75022 | 38971 ft | 427 kts | 178° |
| 2026-05-07 10:31 | 48.06007 | 19.76099 | 38973 ft | 427 kts | 178° |
| 2026-05-07 10:32 | 48.00102 | 19.77173 | 38973 ft | 427 kts | 178° |
| 2026-05-07 10:32 | 47.94202 | 19.78245 | 38973 ft | 427 kts | 178° |
| 2026-05-07 10:33 | 47.88279 | 19.79317 | 38975 ft | 428 kts | 178° |
| 2026-05-07 10:33 | 47.82406 | 19.80379 | 38981 ft | 428 kts | 178° |
| 2026-05-07 10:34 | 47.76490 | 19.81445 | 38982 ft | 428 kts | 178° |
| 2026-05-07 10:34 | 47.70569 | 19.82510 | 38980 ft | 429 kts | 178° |
| 2026-05-07 10:35 | 47.64649 | 19.83572 | 38981 ft | 429 kts | 178° |
| 2026-05-07 10:35 | 47.58725 | 19.84633 | 38982 ft | 429 kts | 178° |
| 2026-05-07 10:36 | 47.52799 | 19.85692 | 38988 ft | 429 kts | 178° |
| 2026-05-07 10:36 | 47.46863 | 19.86750 | 38987 ft | 429 kts | 178° |
| 2026-05-07 10:37 | 47.40932 | 19.87805 | 38985 ft | 429 kts | 178° |
| 2026-05-07 10:37 | 47.34997 | 19.88858 | 38995 ft | 429 kts | 178° |
| 2026-05-07 10:38 | 47.29106 | 19.89901 | 38998 ft | 429 kts | 178° |
| 2026-05-07 10:38 | 47.23167 | 19.90950 | 39002 ft | 429 kts | 178° |
| 2026-05-07 10:39 | 47.17241 | 19.91994 | 38992 ft | 429 kts | 178° |
| 2026-05-07 10:39 | 47.11293 | 19.93040 | 38993 ft | 429 kts | 178° |
| 2026-05-07 10:40 | 47.05358 | 19.94081 | 38995 ft | 429 kts | 178° |
| 2026-05-07 10:40 | 46.99460 | 19.95114 | 38996 ft | 429 kts | 178° |
| 2026-05-07 10:41 | 46.93523 | 19.96151 | 38995 ft | 430 kts | 178° |
| 2026-05-07 10:41 | 46.87584 | 19.97186 | 38995 ft | 430 kts | 178° |
| 2026-05-07 10:42 | 46.81645 | 19.98218 | 39001 ft | 430 kts | 178° |
| 2026-05-07 10:42 | 46.75735 | 19.99244 | 39000 ft | 430 kts | 178° |
| 2026-05-07 10:43 | 46.69796 | 20.00272 | 39014 ft | 430 kts | 179° |
| 2026-05-07 10:43 | 46.63849 | 20.01299 | 39014 ft | 430 kts | 179° |
| 2026-05-07 10:44 | 46.57906 | 20.02323 | 39019 ft | 430 kts | 179° |
| 2026-05-07 10:44 | 46.51959 | 20.03346 | 39024 ft | 430 kts | 179° |
| 2026-05-07 10:45 | 46.46018 | 20.04365 | 39024 ft | 430 kts | 179° |
| 2026-05-07 10:45 | 46.40062 | 20.05385 | 39022 ft | 431 kts | 179° |
| 2026-05-07 10:46 | 46.34107 | 20.06402 | 39031 ft | 431 kts | 179° |
| 2026-05-07 10:46 | 46.28143 | 20.07419 | 39029 ft | 431 kts | 179° |
| 2026-05-07 10:47 | 46.22179 | 20.08433 | 39031 ft | 432 kts | 179° |
| 2026-05-07 10:47 | 46.16262 | 20.09758 | 39030 ft | 438 kts | 170° |
| 2026-05-07 10:48 | 46.10418 | 20.12473 | 39031 ft | 442 kts | 166° |
| 2026-05-07 10:48 | 46.04627 | 20.15504 | 39033 ft | 443 kts | 165° |
| 2026-05-07 10:49 | 45.98825 | 20.18593 | 39038 ft | 444 kts | 165° |
| 2026-05-07 10:49 | 45.93019 | 20.21651 | 39038 ft | 445 kts | 165° |
| 2026-05-07 10:50 | 45.87236 | 20.24668 | 39036 ft | 445 kts | 165° |
| 2026-05-07 10:50 | 45.81396 | 20.27701 | 39037 ft | 446 kts | 165° |
| 2026-05-07 10:51 | 45.75555 | 20.30728 | 39036 ft | 447 kts | 165° |
| 2026-05-07 10:51 | 45.69697 | 20.33758 | 39038 ft | 448 kts | 165° |
| 2026-05-07 10:52 | 45.63830 | 20.36786 | 39041 ft | 448 kts | 165° |
| 2026-05-07 10:52 | 45.57954 | 20.39813 | 39037 ft | 449 kts | 165° |
| 2026-05-07 10:53 | 45.52116 | 20.42813 | 39040 ft | 449 kts | 165° |
| 2026-05-07 10:53 | 45.46225 | 20.45834 | 39041 ft | 450 kts | 165° |
| 2026-05-07 10:54 | 45.40327 | 20.48851 | 39037 ft | 450 kts | 165° |
| 2026-05-07 10:54 | 45.34423 | 20.51865 | 39039 ft | 451 kts | 165° |
| 2026-05-07 10:55 | 45.28513 | 20.54875 | 39038 ft | 451 kts | 165° |
| 2026-05-07 10:55 | 45.22594 | 20.57883 | 39035 ft | 452 kts | 165° |
| 2026-05-07 10:56 | 45.16675 | 20.60884 | 39035 ft | 452 kts | 165° |
| 2026-05-07 10:56 | 45.10783 | 20.63866 | 39036 ft | 452 kts | 165° |
| 2026-05-07 10:57 | 45.04852 | 20.66860 | 39033 ft | 447 kts | 164° |
| 2026-05-07 10:57 | 44.99093 | 20.69769 | 39034 ft | 435 kts | 164° |
| 2026-05-07 10:58 | 44.95319 | 20.71667 | 39034 ft | 434 kts | 164° |
| 2026-05-07 10:58 | 44.89793 | 20.74436 | 39034 ft | 434 kts | 165° |
| 2026-05-07 10:59 | 44.84101 | 20.77285 | 39030 ft | 434 kts | 165° |
| 2026-05-07 10:59 | 44.78407 | 20.80130 | 39029 ft | 434 kts | 165° |
| 2026-05-07 11:00 | 44.72719 | 20.82967 | 39036 ft | 434 kts | 165° |
| 2026-05-07 11:00 | 44.67027 | 20.85801 | 39033 ft | 433 kts | 165° |
| 2026-05-07 11:01 | 44.61345 | 20.88625 | 39040 ft | 433 kts | 165° |
| 2026-05-07 11:01 | 44.56626 | 20.90965 | 39027 ft | 433 kts | 165° |
| 2026-05-07 11:02 | 44.50955 | 20.93771 | 39032 ft | 432 kts | 165° |
| 2026-05-07 11:02 | 44.45286 | 20.96571 | 39038 ft | 432 kts | 165° |
| 2026-05-07 11:03 | 44.39621 | 20.99363 | 39043 ft | 431 kts | 165° |
| 2026-05-07 11:03 | 44.33962 | 21.02146 | 39043 ft | 431 kts | 165° |
| 2026-05-07 11:04 | 44.28307 | 21.04922 | 39048 ft | 431 kts | 165° |
| 2026-05-07 11:04 | 44.22659 | 21.07689 | 39051 ft | 431 kts | 165° |
| 2026-05-07 11:05 | 44.17000 | 21.10455 | 39052 ft | 430 kts | 165° |
| 2026-05-07 11:05 | 44.11350 | 21.13211 | 39057 ft | 430 kts | 165° |
| 2026-05-07 11:06 | 44.05694 | 21.15965 | 39063 ft | 431 kts | 165° |
| 2026-05-07 11:06 | 44.00028 | 21.18717 | 39062 ft | 431 kts | 165° |
| 2026-05-07 11:07 | 43.94357 | 21.21466 | 39064 ft | 432 kts | 165° |
| 2026-05-07 11:07 | 43.88690 | 21.24209 | 39071 ft | 432 kts | 165° |
| 2026-05-07 11:08 | 43.83011 | 21.26952 | 39073 ft | 432 kts | 165° |
| 2026-05-07 11:08 | 43.77333 | 21.29688 | 39074 ft | 432 kts | 165° |
| 2026-05-07 11:09 | 43.71645 | 21.32424 | 39078 ft | 433 kts | 165° |
| 2026-05-07 11:09 | 43.65954 | 21.35155 | 39082 ft | 433 kts | 165° |
| 2026-05-07 11:10 | 43.60257 | 21.37885 | 39085 ft | 434 kts | 165° |
| 2026-05-07 11:10 | 43.54552 | 21.40612 | 39088 ft | 434 kts | 165° |
| 2026-05-07 11:11 | 43.48880 | 21.43319 | 39092 ft | 434 kts | 165° |
| 2026-05-07 11:11 | 43.43165 | 21.46040 | 39093 ft | 435 kts | 165° |
| 2026-05-07 11:12 | 43.37441 | 21.48760 | 39099 ft | 435 kts | 165° |
| 2026-05-07 11:12 | 43.31708 | 21.51480 | 39104 ft | 436 kts | 165° |
| 2026-05-07 11:13 | 43.25973 | 21.54194 | 39102 ft | 436 kts | 165° |
| 2026-05-07 11:13 | 43.20231 | 21.56906 | 39106 ft | 436 kts | 165° |
| 2026-05-07 11:14 | 43.14488 | 21.59614 | 39110 ft | 437 kts | 165° |
| 2026-05-07 11:14 | 43.08775 | 21.62302 | 39114 ft | 437 kts | 165° |
| 2026-05-07 11:15 | 43.03014 | 21.65007 | 39117 ft | 438 kts | 165° |
| 2026-05-07 11:15 | 42.97254 | 21.67707 | 39120 ft | 438 kts | 165° |
| 2026-05-07 11:16 | 42.91464 | 21.70343 | 39118 ft | 438 kts | 165° |
| 2026-05-07 11:16 | 42.85654 | 21.72906 | 39131 ft | 439 kts | 166° |
| 2026-05-07 11:17 | 42.79867 | 21.75449 | 39120 ft | 440 kts | 166° |
| 2026-05-07 11:17 | 42.74044 | 21.78012 | 39131 ft | 440 kts | 165° |
| 2026-05-07 11:18 | 42.68214 | 21.80578 | 39126 ft | 440 kts | 166° |
| 2026-05-07 11:18 | 42.62398 | 21.83135 | 39128 ft | 440 kts | 166° |
| 2026-05-07 11:19 | 42.56573 | 21.85690 | 39134 ft | 440 kts | 166° |
| 2026-05-07 11:19 | 42.50736 | 21.88245 | 39137 ft | 441 kts | 166° |
| 2026-05-07 11:20 | 42.44896 | 21.90797 | 39137 ft | 441 kts | 166° |
| 2026-05-07 11:20 | 42.39054 | 21.93344 | 39141 ft | 441 kts | 166° |
| 2026-05-07 11:21 | 42.33208 | 21.95889 | 39142 ft | 442 kts | 166° |
| 2026-05-07 11:21 | 42.27353 | 21.98432 | 39143 ft | 442 kts | 166° |
| 2026-05-07 11:22 | 42.21491 | 22.00973 | 39146 ft | 442 kts | 166° |
| 2026-05-07 11:22 | 42.15620 | 22.03513 | 39149 ft | 443 kts | 166° |
| 2026-05-07 11:23 | 42.09753 | 22.06046 | 39153 ft | 443 kts | 166° |
| 2026-05-07 11:23 | 42.03875 | 22.08604 | 39154 ft | 444 kts | 165° |
| 2026-05-07 11:24 | 41.98073 | 22.11341 | 39152 ft | 445 kts | 164° |
| 2026-05-07 11:24 | 41.92246 | 22.14167 | 39152 ft | 446 kts | 164° |
| 2026-05-07 11:25 | 41.86404 | 22.16986 | 39154 ft | 446 kts | 164° |
| 2026-05-07 11:25 | 41.80556 | 22.19783 | 39155 ft | 447 kts | 164° |
| 2026-05-07 11:26 | 41.74691 | 22.22575 | 39155 ft | 448 kts | 165° |
| 2026-05-07 11:26 | 41.68819 | 22.25364 | 39154 ft | 448 kts | 165° |
| 2026-05-07 11:27 | 41.62934 | 22.28154 | 39153 ft | 449 kts | 165° |
| 2026-05-07 11:27 | 41.57025 | 22.30952 | 39152 ft | 450 kts | 165° |
| 2026-05-07 11:28 | 41.51107 | 22.33748 | 39156 ft | 451 kts | 165° |
| 2026-05-07 11:28 | 41.45173 | 22.36546 | 39153 ft | 453 kts | 165° |
| 2026-05-07 11:29 | 41.39270 | 22.39325 | 39155 ft | 453 kts | 165° |
| 2026-05-07 11:29 | 41.33335 | 22.42113 | 39153 ft | 453 kts | 165° |
| 2026-05-07 11:30 | 41.27395 | 22.44898 | 39153 ft | 452 kts | 165° |
| 2026-05-07 11:30 | 41.21463 | 22.47674 | 39156 ft | 452 kts | 165° |
| 2026-05-07 11:31 | 41.15530 | 22.50444 | 39153 ft | 452 kts | 165° |
| 2026-05-07 11:31 | 41.09654 | 22.53416 | 39152 ft | 454 kts | 161° |
| 2026-05-07 11:32 | 41.00962 | 22.58527 | 39152 ft | 455 kts | 160° |
| 2026-05-07 11:33 | 40.95215 | 22.61923 | 39154 ft | 455 kts | 161° |
| 2026-05-07 11:33 | 40.89414 | 22.65298 | 39153 ft | 456 kts | 161° |
| 2026-05-07 11:34 | 40.83599 | 22.68654 | 39151 ft | 456 kts | 161° |
| 2026-05-07 11:34 | 40.77773 | 22.72006 | 39153 ft | 457 kts | 161° |
| 2026-05-07 11:35 | 40.71934 | 22.75362 | 39151 ft | 458 kts | 161° |
| 2026-05-07 11:35 | 40.66094 | 22.78714 | 39151 ft | 458 kts | 161° |
| 2026-05-07 11:36 | 40.60242 | 22.82066 | 39155 ft | 459 kts | 161° |
| 2026-05-07 11:36 | 40.54386 | 22.85413 | 39156 ft | 459 kts | 161° |
| 2026-05-07 11:37 | 40.48528 | 22.88756 | 39156 ft | 459 kts | 161° |
| 2026-05-07 11:37 | 40.42663 | 22.92096 | 39155 ft | 459 kts | 161° |
| 2026-05-07 11:38 | 40.36790 | 22.95434 | 39154 ft | 460 kts | 161° |
| 2026-05-07 11:38 | 40.30951 | 22.98746 | 39150 ft | 461 kts | 161° |
| 2026-05-07 11:39 | 40.25068 | 23.02077 | 39150 ft | 461 kts | 161° |
| 2026-05-07 11:39 | 40.19168 | 23.05411 | 39144 ft | 462 kts | 161° |
| 2026-05-07 11:40 | 40.13264 | 23.08742 | 39142 ft | 462 kts | 161° |
| 2026-05-07 11:40 | 40.07348 | 23.12073 | 39141 ft | 463 kts | 161° |
| 2026-05-07 11:41 | 40.01423 | 23.15402 | 39140 ft | 464 kts | 161° |
| 2026-05-07 11:41 | 39.95488 | 23.18731 | 39143 ft | 464 kts | 161° |
| 2026-05-07 11:42 | 39.89552 | 23.22054 | 39140 ft | 465 kts | 161° |
| 2026-05-07 11:42 | 39.83597 | 23.25382 | 39150 ft | 466 kts | 162° |
| 2026-05-07 11:43 | 39.77674 | 23.28685 | 39136 ft | 466 kts | 162° |
| 2026-05-07 11:43 | 39.71701 | 23.32010 | 39136 ft | 467 kts | 162° |
| 2026-05-07 11:44 | 39.65716 | 23.35335 | 39135 ft | 468 kts | 162° |
| 2026-05-07 11:44 | 39.59717 | 23.38662 | 39131 ft | 468 kts | 162° |
| 2026-05-07 11:45 | 39.53759 | 23.41960 | 39129 ft | 469 kts | 162° |
| 2026-05-07 11:45 | 39.47761 | 23.45274 | 39122 ft | 469 kts | 162° |
| 2026-05-07 11:46 | 39.41749 | 23.48588 | 39116 ft | 470 kts | 162° |
| 2026-05-07 11:46 | 39.35731 | 23.51901 | 39109 ft | 470 kts | 162° |
| 2026-05-07 11:47 | 39.29700 | 23.55214 | 39106 ft | 471 kts | 162° |
| 2026-05-07 11:47 | 39.23670 | 23.58521 | 39101 ft | 471 kts | 162° |
| 2026-05-07 11:48 | 39.17541 | 23.61379 | 39103 ft | 464 kts | 174° |
| 2026-05-07 11:48 | 39.11244 | 23.62678 | 39104 ft | 460 kts | 179° |
| 2026-05-07 11:49 | 39.04890 | 23.63646 | 39104 ft | 461 kts | 177° |
| 2026-05-07 11:49 | 38.98660 | 23.66003 | 39108 ft | 475 kts | 158° |
| 2026-05-07 11:50 | 38.92911 | 23.70336 | 39111 ft | 482 kts | 151° |
| 2026-05-07 11:50 | 38.87337 | 23.75167 | 39112 ft | 484 kts | 150° |
| 2026-05-07 11:51 | 38.82713 | 23.79230 | 39112 ft | 485 kts | 150° |
| 2026-05-07 11:51 | 38.79910 | 23.81666 | 38962 ft | 486 kts | 150° |
| 2026-05-07 11:51 | 38.77105 | 23.84085 | 38563 ft | 487 kts | 150° |
| 2026-05-07 11:51 | 38.74281 | 23.86501 | 37742 ft | 489 kts | 150° |
| 2026-05-07 11:52 | 38.71437 | 23.88923 | 36979 ft | 491 kts | 150° |
| 2026-05-07 11:52 | 38.68589 | 23.91343 | 36268 ft | 492 kts | 150° |
| 2026-05-07 11:52 | 38.65741 | 23.93761 | 35637 ft | 491 kts | 149° |
| 2026-05-07 11:52 | 38.62907 | 23.96167 | 35148 ft | 486 kts | 149° |
| 2026-05-07 11:53 | 38.60099 | 23.98550 | 34658 ft | 482 kts | 149° |
| 2026-05-07 11:53 | 38.57360 | 24.00873 | 34194 ft | 477 kts | 149° |
| 2026-05-07 11:53 | 38.54599 | 24.03212 | 33633 ft | 473 kts | 149° |
| 2026-05-07 11:53 | 38.51854 | 24.05534 | 33112 ft | 472 kts | 149° |
| 2026-05-07 11:54 | 38.49118 | 24.07846 | 32571 ft | 472 kts | 149° |
| 2026-05-07 11:54 | 38.46569 | 24.10538 | 32031 ft | 480 kts | 134° |
| 2026-05-07 11:54 | 38.44624 | 24.14001 | 31227 ft | 485 kts | 118° |
| 2026-05-07 11:54 | 38.43271 | 24.17965 | 30340 ft | 490 kts | 111° |
| 2026-05-07 11:55 | 38.42103 | 24.22058 | 29258 ft | 495 kts | 110° |
| 2026-05-07 11:55 | 38.40952 | 24.26219 | 28187 ft | 497 kts | 110° |
| 2026-05-07 11:55 | 38.39817 | 24.30360 | 27130 ft | 493 kts | 110° |
| 2026-05-07 11:55 | 38.38690 | 24.34502 | 26071 ft | 498 kts | 110° |
| 2026-05-07 11:56 | 38.37556 | 24.38690 | 25107 ft | 500 kts | 110° |
| 2026-05-07 11:56 | 38.36437 | 24.42847 | 24075 ft | 491 kts | 110° |
| 2026-05-07 11:56 | 38.35340 | 24.46942 | 22892 ft | 483 kts | 110° |
| 2026-05-07 11:56 | 38.34276 | 24.50902 | 21676 ft | 475 kts | 110° |
| 2026-05-07 11:57 | 38.33209 | 24.54848 | 20488 ft | 467 kts | 110° |
| 2026-05-07 11:57 | 38.32151 | 24.58727 | 19340 ft | 459 kts | 110° |
| 2026-05-07 11:57 | 38.31027 | 24.62501 | 18270 ft | 453 kts | 117° |
| 2026-05-07 11:57 | 38.29284 | 24.65776 | 17235 ft | 442 kts | 134° |
| 2026-05-07 11:58 | 38.26921 | 24.68223 | 16186 ft | 434 kts | 152° |
| 2026-05-07 11:58 | 38.24185 | 24.69657 | 15043 ft | 421 kts | 168° |
| 2026-05-07 11:58 | 38.21329 | 24.70302 | 13861 ft | 413 kts | 174° |
| 2026-05-07 11:58 | 38.18482 | 24.70764 | 12737 ft | 410 kts | 175° |
| 2026-05-07 11:59 | 38.15686 | 24.71129 | 11663 ft | 398 kts | 180° |
| 2026-05-07 11:59 | 38.13018 | 24.70610 | 10859 ft | 379 kts | 201° |
| 2026-05-07 11:59 | 38.10832 | 24.69058 | 10445 ft | 352 kts | 221° |
| 2026-05-07 11:59 | 38.09321 | 24.66728 | 10083 ft | 327 kts | 244° |
| 2026-05-07 12:00 | 38.08705 | 24.64115 | 9748 ft | 305 kts | 266° |
| 2026-05-07 12:00 | 38.08720 | 24.61492 | 9513 ft | 291 kts | 274° |
| 2026-05-07 12:00 | 38.08875 | 24.58979 | 9213 ft | 282 kts | 275° |
| 2026-05-07 12:00 | 38.09051 | 24.56510 | 8855 ft | 278 kts | 275° |
| 2026-05-07 12:01 | 38.09232 | 24.54081 | 8418 ft | 276 kts | 275° |
| 2026-05-07 12:01 | 38.09425 | 24.51655 | 7965 ft | 276 kts | 275° |
| 2026-05-07 12:01 | 38.09629 | 24.49247 | 7760 ft | 274 kts | 275° |
| 2026-05-07 12:01 | 38.09840 | 24.46844 | 7491 ft | 273 kts | 275° |
| 2026-05-07 12:02 | 38.10043 | 24.44451 | 7058 ft | 273 kts | 272° |
| 2026-05-07 12:02 | 38.10061 | 24.42037 | 6656 ft | 273 kts | 266° |
| 2026-05-07 12:02 | 38.09977 | 24.39772 | 6490 ft | 269 kts | 265° |
| 2026-05-07 12:02 | 38.09877 | 24.37395 | 6466 ft | 270 kts | 264° |
| 2026-05-07 12:03 | 38.09779 | 24.35010 | 6454 ft | 271 kts | 265° |
| 2026-05-07 12:03 | 38.09678 | 24.32627 | 6459 ft | 270 kts | 265° |
| 2026-05-07 12:03 | 38.09568 | 24.30242 | 6465 ft | 270 kts | 265° |
| 2026-05-07 12:03 | 38.09460 | 24.27857 | 6480 ft | 271 kts | 265° |
| 2026-05-07 12:04 | 38.09355 | 24.25469 | 6461 ft | 271 kts | 265° |
| 2026-05-07 12:04 | 38.09251 | 24.23118 | 6479 ft | 271 kts | 265° |
| 2026-05-07 12:04 | 38.09141 | 24.20736 | 6428 ft | 268 kts | 265° |
| 2026-05-07 12:04 | 38.09037 | 24.18390 | 6073 ft | 266 kts | 265° |
| 2026-05-07 12:05 | 38.08878 | 24.16056 | 5694 ft | 261 kts | 257° |
| 2026-05-07 12:05 | 38.08423 | 24.13900 | 5493 ft | 245 kts | 250° |
| 2026-05-07 12:05 | 38.07888 | 24.11918 | 5290 ft | 230 kts | 249° |
| 2026-05-07 12:05 | 38.07351 | 24.10056 | 5043 ft | 220 kts | 248° |
| 2026-05-07 12:06 | 38.06812 | 24.08232 | 4528 ft | 223 kts | 248° |
| 2026-05-07 12:06 | 38.06256 | 24.06380 | 4042 ft | 224 kts | 247° |
| 2026-05-07 12:06 | 38.05501 | 24.04731 | 3698 ft | 212 kts | 227° |
| 2026-05-07 12:06 | 38.04427 | 24.03513 | 3271 ft | 202 kts | 218° |
| 2026-05-07 12:07 | 38.03309 | 24.02506 | 2830 ft | 192 kts | 213° |
| 2026-05-07 12:07 | 38.02248 | 24.01533 | 2376 ft | 186 kts | 216° |
| 2026-05-07 12:07 | 38.01235 | 24.00543 | 1899 ft | 181 kts | 216° |
| 2026-05-07 12:07 | 38.00260 | 23.99619 | 1657 ft | 164 kts | 214° |
| 2026-05-07 12:08 | 37.99390 | 23.98797 | 1478 ft | 151 kts | 214° |
| 2026-05-07 12:08 | 37.98577 | 23.98021 | 1288 ft | 143 kts | 214° |
| 2026-05-07 12:08 | 37.97812 | 23.97292 | 1096 ft | 133 kts | 216° |
| 2026-05-07 12:08 | 37.97093 | 23.96604 | 920 ft | 125 kts | 216° |
| 2026-05-07 12:09 | 37.96411 | 23.95953 | 753 ft | 121 kts | 218° |
| 2026-05-07 12:09 | 37.95745 | 23.95315 | 623 ft | 121 kts | 218° |
| 2026-05-07 12:09 | 37.95071 | 23.94649 | 435 ft | 121 kts | 214° |
| 2026-05-07 12:09 | 37.94389 | 23.94017 | 319 ft | 120 kts | 216° |
| 2026-05-07 12:10 | 37.93796 | 23.93455 | 295 ft | 84 kts | 217° |
| 2026-05-07 12:10 | 37.93495 | 23.93169 | 297 ft | 37 kts | 217° |
| 2026-05-07 12:10 | 37.93325 | 23.93008 | 296 ft | 23 kts | 217° |
| 2026-05-07 12:10 | 37.93196 | 23.92897 | 296 ft | 21 kts | 207° |
| 2026-05-07 12:11 | 37.93054 | 23.92837 | 295 ft | 22 kts | 187° |
| 2026-05-07 12:11 | 37.92948 | 23.92833 | 301 ft | 13 kts | 153° |
| 2026-05-07 12:11 | 37.92943 | 23.92925 | 304 ft | 14 kts | 44° |
| 2026-05-07 12:11 | 37.93021 | 23.92999 | 302 ft | 14 kts | 37° |
| 2026-05-07 12:12 | 37.93097 | 23.93071 | 303 ft | 14 kts | 38° |
| 2026-05-07 12:12 | 37.93167 | 23.93137 | 302 ft | 11 kts | 36° |
| 2026-05-07 12:12 | 37.93236 | 23.93203 | 303 ft | 15 kts | 37° |
| 2026-05-07 12:12 | 37.93327 | 23.93289 | 305 ft | 18 kts | 36° |
| 2026-05-07 12:13 | 37.93430 | 23.93401 | 302 ft | 18 kts | 72° |
| 2026-05-07 12:13 | 37.93377 | 23.93528 | 303 ft | 16 kts | 127° |
| 2026-05-07 12:13 | 37.93310 | 23.93642 | 304 ft | 18 kts | 127° |
| 2026-05-07 12:13 | 37.93225 | 23.93785 | 304 ft | 23 kts | 127° |
| 2026-05-07 12:14 | 37.93132 | 23.93939 | 304 ft | 21 kts | 127° |
| 2026-05-07 12:14 | 37.93043 | 23.94088 | 306 ft | 21 kts | 126° |
| 2026-05-07 12:14 | 37.92955 | 23.94235 | 305 ft | 21 kts | 127° |
| 2026-05-07 12:14 | 37.92881 | 23.94384 | 304 ft | 18 kts | 85° |
| 2026-05-07 12:15 | 37.92964 | 23.94486 | 304 ft | 17 kts | 37° |
| 2026-05-07 12:15 | 37.93059 | 23.94576 | 307 ft | 17 kts | 37° |
| 2026-05-07 12:15 | 37.93153 | 23.94665 | 305 ft | 17 kts | 37° |
| 2026-05-07 12:15 | 37.93246 | 23.94753 | 303 ft | 17 kts | 37° |
| 2026-05-07 12:16 | 37.93337 | 23.94840 | 304 ft | 17 kts | 37° |
| 2026-05-07 12:16 | 37.93445 | 23.94943 | 306 ft | 21 kts | 37° |
| 2026-05-07 12:16 | 37.93563 | 23.95055 | 304 ft | 21 kts | 38° |
| 2026-05-07 12:16 | 37.93674 | 23.95148 | 306 ft | 11 kts | 5° |
| 2026-05-07 12:17 | 37.93710 | 23.95113 | 306 ft | 6 kts | 289° |
| 2026-05-07 12:17 | 37.93708 | 23.95047 | 306 ft | 9 kts | 282° |
| 2026-05-07 12:17 | 37.93739 | 23.94988 | 304 ft | 8 kts | 307° |
| 2026-05-07 12:17 | 37.93752 | 23.94966 | 304 ft | 0 kts | 307° |